Date,TemperatureHighF,TemperatureAvgF,TemperatureLowF,DewpointHighF,DewpointAvgF,DewpointLowF,HumidityHigh,HumidityAvg,HumidityLow,PressureMaxIn,PressureMinIn,WindSpeedMaxMPH,WindSpeedAvgMPH,GustSpeedMaxMPH,PrecipitationSumIn
2013-1-1,56.0,53.5,49.0,55.0,50.7,45.0,98,90,86,30.16,30.00,12,8,22,0.02
2013-1-2,44.0,42.6,42.0,41.0,40.1,38.0,94,91,87,30.27,30.20,7,5,14,0.15
2013-1-3,54.0,50.1,41.0,39.0,37.4,35.0,84,62,50,30.38,30.29,11,6,17,0.01
2013-1-4,49.0,48.2,46.0,40.0,38.9,37.0,76,70,63,30.47,30.33,8,6,17,0.00
2013-1-5,46.0,45.8,45.0,45.0,44.6,43.0,98,96,91,30.33,30.23,8,4,14,0.61
2013-1-6,58.0,50.9,42.0,47.0,44.2,39.0,93,78,61,30.33,30.23,11,5,21,0.05
2013-1-7,55.0,51.8,46.0,49.0,47.3,44.0,96,85,76,30.29,30.11,6,4,13,0.01
2013-1-8,65.0,62.8,58.0,64.0,62.0,57.0,99,98,96,30.02,29.86,8,4,18,1.05
2013-1-9,67.0,64.5,62.0,66.0,63.9,62.0,99,98,97,29.99,29.79,14,6,28,1.73
2013-1-10,71.0,60.9,53.0,60.0,56.3,52.0,100,86,53,30.10,29.99,5,2,11,0.12
2013-1-11,69.0,65.0,53.0,67.0,60.8,52.0,100,87,60,30.02,29.88,6,3,12,0.02
2013-1-12,73.0,71.4,70.0,72.0,70.6,69.0,99,98,95,29.89,29.70,11,6,20,0.03
2013-1-13,51.0,47.7,43.0,46.0,44.0,42.0,98,87,79,30.09,29.96,13,10,23,0.39
2013-1-14,47.0,44.3,42.0,43.0,41.6,40.0,97,90,85,30.19,30.09,11,7,20,0.08
2013-1-15,40.0,39.7,38.0,39.0,38.0,36.0,97,94,90,30.12,30.01,9,7,17,0.01
2013-1-16,53.0,43.4,29.0,36.0,27.8,23.0,87,57,33,30.27,30.16,9,3,21,0.00
2013-1-17,62.0,52.0,39.0,38.0,34.2,28.0,89,54,32,30.44,30.33,7,2,14,0.00
2013-1-18,58.0,50.0,37.0,49.0,41.2,35.0,98,74,53,30.52,30.38,6,3,13,0.00
2013-1-19,65.0,58.1,50.0,55.0,53.0,49.0,97,84,67,30.32,30.20,6,3,13,0.00
2013-1-20,68.0,61.0,52.0,60.0,54.0,51.0,100,79,61,30.26,30.13,5,2,10,0.01
2013-1-21,71.0,60.5,48.0,60.0,52.8,46.0,100,77,55,30.23,30.16,5,1,9,0.01
2013-1-22,69.0,60.4,50.0,56.0,53.8,50.0,99,80,60,30.32,30.23,6,2,12,0.01
2013-1-23,74.0,66.1,50.0,63.0,60.6,50.0,100,84,66,30.35,30.24,7,3,17,0.01
2013-1-24,77.0,68.7,60.0,68.0,65.0,60.0,100,89,74,30.29,30.16,9,4,17,0.01
2013-1-25,78.0,69.8,59.0,68.0,64.4,59.0,100,84,63,30.19,30.08,9,4,19,0.02
2013-1-26,76.0,69.2,62.0,66.0,63.5,61.0,97,83,67,30.14,30.11,7,3,16,0.01
2013-1-27,73.0,69.8,68.0,69.0,67.6,66.0,96,93,87,30.08,30.05,8,5,16,0.01
2013-1-28,76.0,72.2,69.0,71.0,68.7,68.0,98,89,81,30.11,29.99,10,7,21,0.00
2013-1-29,74.0,72.4,69.0,72.0,70.7,68.0,97,94,91,29.87,29.64,11,8,24,0.00
2013-1-30,60.0,55.3,39.0,36.0,31.3,28.0,76,42,30,30.21,29.88,10,5,25,0.05
2013-1-31,66.0,57.9,46.0,47.0,36.2,25.0,95,48,23,30.32,30.22,10,4,21,0.00
2013-2-1,69.0,61.5,49.0,54.0,47.0,38.0,98,62,36,30.36,30.26,8,3,15,0.00
2013-2-2,74.0,65.9,54.0,60.0,56.6,53.0,99,74,52,30.26,30.17,8,2,12,0.00
2013-2-3,70.0,61.1,50.0,55.0,46.1,42.0,96,61,36,30.31,30.10,6,3,14,0.01
2013-2-4,73.0,68.6,63.0,67.0,64.2,61.0,97,86,77,29.98,29.83,6,3,14,0.00
2013-2-5,78.0,70.2,65.0,70.0,66.9,64.0,100,90,72,29.98,29.89,6,3,12,0.00
2013-2-6,65.0,62.8,61.0,65.0,62.0,59.0,99,98,94,30.02,29.83,12,5,22,1.17
2013-2-7,70.0,65.8,55.0,65.0,63.0,55.0,100,91,83,29.97,29.89,4,2,8,0.01
2013-2-8,69.0,62.7,56.0,57.0,54.8,53.0,91,76,63,30.16,30.08,10,4,17,0.00
2013-2-9,69.0,66.4,57.0,67.0,63.3,54.0,95,90,84,30.12,29.89,10,7,19,0.00
2013-2-10,75.0,65.7,61.0,73.0,63.1,58.0,96,91,84,29.93,29.83,8,4,18,0.06
2013-2-11,60.0,57.0,55.0,57.0,55.1,53.0,98,94,85,30.03,29.94,11,7,24,0.13
2013-2-12,70.0,63.6,57.0,69.0,61.6,55.0,100,93,87,29.91,29.78,7,3,13,0.03
2013-2-13,62.0,53.5,46.0,44.0,42.4,41.0,86,67,51,30.10,30.01,10,4,16,0.04
2013-2-14,65.0,58.1,44.0,47.0,43.6,41.0,93,61,43,30.15,30.05,4,1,11,0.00
2013-2-15,68.0,61.5,49.0,55.0,46.8,43.0,99,60,42,30.27,30.11,13,4,21,0.00
2013-2-16,62.0,54.3,43.0,41.0,31.8,24.0,87,46,29,30.43,30.25,8,3,17,0.00
2013-2-17,68.0,64.2,58.0,55.0,49.5,45.0,81,60,45,30.24,30.09,11,6,22,0.00
2013-2-18,72.0,69.6,67.0,66.0,64.8,63.0,93,85,75,29.98,29.92,14,8,29,0.28
2013-2-19,65.0,59.7,52.0,48.0,45.9,41.0,81,61,46,30.24,30.14,7,3,16,0.49
2013-2-20,64.0,61.8,59.0,62.0,57.7,51.0,95,87,73,30.07,29.85,12,8,24,0.04
2013-2-21,75.0,70.8,65.0,73.0,66.0,55.0,98,85,66,29.82,29.67,9,4,18,0.09
2013-2-22,69.0,65.0,61.0,56.0,52.5,50.0,78,65,52,29.95,29.85,8,6,18,0.01
2013-2-23,69.0,60.3,52.0,56.0,52.4,48.0,95,76,62,29.98,29.88,8,2,14,0.00
2013-2-24,66.0,63.3,61.0,61.0,58.8,57.0,96,86,76,29.91,29.70,7,4,15,0.01
2013-2-25,76.0,67.0,52.0,70.0,42.9,23.0,99,49,15,29.74,29.52,13,7,29,0.02
2013-2-26,65.0,57.0,49.0,42.0,37.7,35.0,76,50,36,29.93,29.84,6,3,15,0.00
2013-2-27,73.0,64.2,53.0,57.0,43.6,33.0,99,49,32,30.13,29.98,10,6,22,0.00
2013-2-28,57.0,51.5,45.0,35.0,31.0,28.0,66,46,34,30.26,30.14,11,5,19,0.00
2013-3-1,65.0,59.4,49.0,38.0,29.7,26.0,64,33,24,30.27,30.13,8,4,16,0.00
2013-3-2,57.0,50.5,36.0,31.0,26.5,23.0,69,41,28,30.34,30.24,11,6,27,0.00
2013-3-3,63.0,58.7,52.0,52.0,43.0,32.0,86,58,38,30.28,30.06,8,4,17,0.00
2013-3-4,76.0,71.1,65.0,64.0,62.5,60.0,91,75,61,29.93,29.81,15,11,34,0.00
2013-3-5,70.0,64.0,56.0,55.0,39.1,30.0,75,42,27,30.27,30.05,14,8,25,0.00
2013-3-6,67.0,56.9,49.0,43.0,33.3,26.0,76,44,22,30.40,30.23,9,3,18,0.00
2013-3-7,66.0,61.1,54.0,53.0,50.7,48.0,88,70,55,30.27,30.19,9,6,17,0.00
2013-3-8,70.0,65.4,62.0,63.0,60.4,59.0,95,84,73,30.21,30.08,9,7,19,0.00
2013-3-9,66.0,66.0,66.0,64.0,64.0,64.0,93,93,92,29.81,29.80,7,7,16,0.01
2013-3-10,69.0,62.0,56.0,67.0,53.2,44.0,96,75,52,29.96,29.83,13,7,26,0.09
2013-3-11,63.0,56.4,43.0,37.0,29.6,25.0,63,38,24,30.12,29.98,10,5,21,0.00
2013-3-12,69.0,59.3,46.0,46.0,43.7,39.0,92,59,39,30.24,30.13,7,3,12,0.00
2013-3-13,70.0,55.8,43.0,51.0,44.7,37.0,98,71,35,30.44,30.24,8,3,17,0.00
2013-3-14,69.0,60.4,47.0,59.0,50.5,46.0,99,72,48,30.41,30.29,7,3,14,0.00
2013-3-15,74.0,69.9,60.0,63.0,61.1,58.0,93,74,65,30.24,30.09,10,7,21,0.00
2013-3-16,76.0,71.9,65.0,65.0,64.0,62.0,89,76,70,29.99,29.88,12,8,23,0.01
2013-3-17,77.0,73.5,69.0,71.0,69.0,67.0,96,86,78,29.84,29.72,11,7,24,0.00
2013-3-18,81.0,75.3,69.0,72.0,69.7,68.0,99,83,70,29.83,29.72,7,4,14,0.00
2013-3-19,72.0,68.0,64.0,66.0,62.0,53.0,97,82,65,29.98,29.89,10,5,19,0.00
2013-3-20,74.0,65.2,55.0,60.0,53.0,43.0,94,68,33,30.15,30.04,13,6,21,0.09
2013-3-21,72.0,68.4,59.0,64.0,59.5,55.0,96,74,60,29.95,29.73,9,6,22,0.00
2013-3-22,78.0,72.3,67.0,73.0,69.5,64.0,98,91,81,29.73,29.67,9,4,20,0.01
2013-3-23,76.0,72.5,66.0,72.0,69.9,65.0,97,92,87,29.65,29.57,2,1,7,0.00
2013-3-24,63.0,58.4,51.0,48.0,35.1,31.0,69,43,33,30.07,29.94,12,8,30,0.01
2013-3-25,62.0,56.9,50.0,28.0,24.7,22.0,40,29,21,30.32,30.20,10,5,19,0.00
2013-3-26,63.0,54.8,44.0,34.0,27.6,19.0,60,37,19,30.47,30.30,10,4,18,0.00
2013-3-27,65.0,61.0,45.0,53.0,47.2,41.0,94,62,43,30.37,30.23,8,5,18,0.00
2013-3-28,71.0,64.8,60.0,61.0,58.1,53.0,91,79,70,30.26,30.19,9,4,17,0.00
2013-3-29,74.0,70.2,67.0,66.0,64.4,63.0,90,82,72,30.22,30.13,9,7,19,0.00
2013-3-30,75.0,71.4,67.0,68.0,66.9,65.0,95,85,77,30.00,29.98,7,4,16,0.02
2013-3-31,82.0,72.9,64.0,72.0,67.1,62.0,97,83,65,29.98,29.85,10,6,24,0.53
2013-4-1,78.0,71.7,65.0,68.0,66.4,64.0,96,84,72,30.06,29.97,6,3,12,0.52
2013-4-2,73.0,69.0,66.0,69.0,67.1,65.0,97,93,86,30.01,29.84,7,5,17,0.03
2013-4-3,68.0,62.9,57.0,64.0,60.1,55.0,100,91,82,30.02,29.85,9,5,16,2.14
2013-4-4,59.0,55.0,52.0,53.0,48.8,45.0,94,80,69,30.14,30.05,8,6,19,0.07
2013-4-5,71.0,62.6,52.0,53.0,49.5,46.0,87,64,47,30.24,30.09,7,3,13,0.00
2013-4-6,73.0,68.7,62.0,62.0,61.0,58.0,91,77,66,30.09,29.96,10,5,21,0.00
2013-4-7,77.0,73.0,67.0,66.0,64.7,63.0,92,76,64,29.99,29.86,7,5,18,0.00
2013-4-8,72.0,71.2,71.0,70.0,69.2,69.0,95,94,91,29.80,29.78,8,7,16,0.01
2013-4-9,77.0,74.0,73.0,74.0,71.8,71.0,94,93,89,29.78,29.70,11,9,21,0.01
2013-4-10,78.0,67.4,54.0,74.0,65.2,53.0,98,93,87,29.79,29.70,11,7,24,0.24
2013-4-11,70.0,58.2,44.0,54.0,49.7,44.0,99,76,47,29.89,29.78,9,4,17,1.63
2013-4-12,76.0,68.3,54.0,58.0,53.6,43.0,100,63,31,30.00,29.89,4,1,13,0.00
2013-4-13,72.0,68.2,65.0,63.0,61.3,60.0,90,80,67,29.83,29.81,8,4,18,0.00
2013-4-14,81.0,74.2,68.0,71.0,68.4,67.0,97,83,72,29.78,29.70,6,3,16,0.00
2013-4-15,78.0,74.7,72.0,73.0,71.5,70.0,97,90,84,29.85,29.77,6,4,13,0.00
2013-4-16,79.0,75.1,74.0,75.0,73.5,73.0,98,95,87,29.93,29.89,8,6,17,0.00
2013-4-17,76.0,75.1,74.0,74.0,73.2,72.0,96,94,93,29.93,29.76,10,8,22,0.00
2013-4-18,76.0,64.8,55.0,74.0,62.8,51.0,97,93,86,29.96,29.72,14,7,24,0.20
2013-4-19,67.0,59.4,50.0,41.0,35.6,31.0,62,42,28,30.23,30.12,13,8,26,0.03
2013-4-20,66.0,62.1,56.0,50.0,49.5,48.0,77,64,54,30.17,30.10,7,4,15,0.00
2013-4-21,72.0,67.3,56.0,60.0,57.8,54.0,93,73,64,30.15,30.06,6,4,11,0.00
2013-4-22,75.0,70.2,61.0,65.0,63.2,61.0,100,79,68,30.09,29.96,6,3,14,0.00
2013-4-23,79.0,75.2,73.0,72.0,70.9,70.0,96,87,76,29.96,29.88,5,3,12,0.01
2013-4-24,73.0,61.4,51.0,72.0,55.5,48.0,98,82,61,30.16,29.96,10,6,21,0.09
2013-4-26,79.0,74.4,70.0,73.0,70.6,68.0,97,88,80,30.19,30.09,8,6,20,0.00
2013-4-27,72.0,69.3,66.0,71.0,68.0,65.0,97,96,95,30.06,29.98,3,2,9,0.39
2013-4-28,80.0,75.2,67.0,70.0,67.1,63.0,96,77,56,29.98,29.89,4,1,11,1.12
2013-4-29,81.0,75.3,71.0,72.0,70.2,68.0,99,85,69,29.93,29.83,6,3,12,0.05
2013-4-30,81.0,74.8,69.0,70.0,68.7,67.0,99,82,68,29.83,29.75,6,2,13,0.07
2013-5-1,82.0,78.9,72.0,72.0,71.2,69.0,92,77,70,29.87,29.81,5,2,11,0.00
2013-5-2,78.0,69.2,57.0,70.0,61.1,49.0,95,76,69,30.11,29.91,11,8,25,0.00
2013-5-3,68.0,60.9,50.0,44.0,38.2,34.0,70,45,28,30.15,30.03,14,7,29,0.00
2013-5-4,79.0,72.5,58.0,55.0,48.9,44.0,80,45,32,30.04,29.87,7,5,17,0.00
2013-5-5,73.0,66.7,54.0,53.0,49.3,47.0,81,55,42,30.07,29.98,7,4,16,0.00
2013-5-6,78.0,72.3,61.0,61.0,56.2,51.0,92,58,47,30.10,29.98,3,2,10,0.00
2013-5-7,82.0,75.0,63.0,64.0,60.8,57.0,97,64,46,30.06,29.97,6,2,14,0.00
2013-5-8,79.0,70.4,60.0,69.0,65.1,59.0,99,84,68,30.07,29.97,7,3,16,0.00
2013-5-9,78.0,75.9,74.0,74.0,73.0,72.0,95,91,85,30.00,29.87,7,5,18,0.00
2013-5-10,80.0,71.3,66.0,72.0,64.6,-99.9,99,88,75,30.00,29.85,10,3,23,1.01
2013-5-11,82.0,78.4,70.0,72.0,70.9,69.0,98,79,67,30.02,29.96,5,2,13,0.50
2013-5-12,80.0,76.9,70.0,68.0,63.4,60.0,83,64,53,30.15,30.08,6,3,15,0.00
2013-5-13,78.0,73.3,61.0,65.0,61.7,58.0,96,68,55,30.27,30.18,6,3,15,0.00
2013-5-14,79.0,74.6,69.0,70.0,68.2,67.0,94,81,69,30.19,30.11,6,4,16,0.01
2013-5-15,79.0,74.3,71.0,73.0,70.7,69.0,96,88,76,30.12,29.94,7,4,16,0.16
2013-5-16,80.0,64.5,75.0,74.0,23.8,-99.9,94,88,80,29.89,29.82,7,5,17,0.00
2013-5-17,80.0,76.6,75.0,75.0,74.2,73.0,96,93,83,29.93,29.88,4,3,13,0.00
2013-5-18,85.0,79.2,76.0,76.0,74.5,74.0,93,85,73,29.93,29.89,6,4,15,0.00
2013-5-19,84.0,78.8,75.0,78.0,75.0,73.0,95,88,78,29.91,29.83,8,5,17,0.00
2013-5-20,84.0,80.8,78.0,78.0,76.5,75.0,95,87,81,29.90,29.79,7,5,17,0.00
2013-5-21,84.0,81.3,78.0,78.0,76.7,76.0,95,86,79,29.86,29.73,7,5,18,0.01
2013-5-22,87.0,81.9,76.0,79.0,77.0,74.0,94,85,77,29.91,29.83,5,3,12,0.02
2013-5-23,86.0,79.5,73.0,78.0,76.0,73.0,100,89,75,30.00,29.88,6,2,14,0.01
2013-5-24,85.0,81.3,75.0,78.0,76.3,73.0,94,85,78,30.13,30.05,6,3,14,0.00
2013-5-26,86.0,81.9,77.0,77.0,74.4,73.0,88,79,70,30.10,30.01,6,4,14,0.00
2013-5-27,85.0,81.3,75.0,77.0,74.7,73.0,93,81,74,30.03,29.93,6,4,16,0.00
2013-5-28,84.0,79.5,76.0,77.0,73.9,72.0,91,83,72,29.97,29.87,7,4,16,0.00
2013-5-29,82.0,80.1,79.0,77.0,76.2,75.0,91,88,83,29.85,29.80,7,5,17,0.00
2013-5-30,85.0,81.3,77.0,79.0,77.0,75.0,94,87,80,29.89,29.82,7,5,19,0.01
2013-5-31,87.0,82.7,80.0,80.0,78.1,77.0,93,87,77,29.85,29.84,6,4,13,0.02
2013-6-1,89.0,85.4,79.0,80.0,78.4,76.0,93,80,72,29.88,29.85,9,5,19,0.00
2013-6-2,85.0,79.0,72.0,75.0,72.5,69.0,91,81,68,30.01,29.87,4,2,11,0.03
2013-6-3,88.0,83.5,72.0,74.0,71.6,69.0,94,69,53,29.94,29.82,4,2,12,0.00
2013-6-4,89.0,83.1,74.0,76.0,74.9,72.0,98,77,61,29.90,29.82,5,2,13,0.00
2013-6-5,90.0,80.2,69.0,79.0,74.8,69.0,100,85,64,29.88,29.76,6,2,13,0.00
2013-6-6,91.0,84.9,69.0,80.0,76.6,67.0,98,77,65,29.85,29.72,6,3,23,0.27
2013-6-7,87.0,77.4,68.0,74.0,71.4,68.0,99,83,59,29.92,29.83,5,2,14,0.27
2013-6-8,89.0,78.7,71.0,76.0,72.2,69.0,94,81,64,29.91,29.81,5,1,12,0.01
2013-6-9,88.0,77.0,72.0,80.0,74.1,71.0,97,91,77,29.93,29.85,5,1,14,0.38
2013-6-10,89.0,85.4,77.0,81.0,78.3,75.0,94,80,68,29.97,29.93,6,3,14,0.01
2013-6-11,90.0,86.5,78.0,81.0,79.3,76.0,94,80,72,30.04,29.98,6,3,15,0.00
2013-6-12,91.0,86.5,76.0,81.0,79.7,75.0,97,81,73,30.06,29.97,5,3,13,0.00
2013-6-13,93.0,83.1,75.0,83.0,78.5,75.0,99,87,64,30.05,29.91,4,1,10,0.00
2013-6-14,93.0,88.8,80.0,80.0,78.4,77.0,91,72,60,29.96,29.88,4,2,10,0.00
2013-6-15,90.0,83.3,76.0,78.0,76.2,74.0,95,81,64,29.95,29.90,4,2,9,0.00
2013-6-16,92.0,87.4,80.0,80.0,78.8,77.0,92,77,66,30.01,29.93,6,4,14,0.02
2013-6-17,91.0,87.0,80.0,81.0,78.6,77.0,90,76,68,30.00,29.89,7,4,17,0.02
2013-6-18,91.0,86.6,76.0,80.0,77.1,72.0,95,74,62,29.98,29.87,7,3,16,0.04
2013-6-19,92.0,87.6,81.0,80.0,78.4,75.0,89,75,59,29.97,29.91,6,4,16,0.04
2013-6-20,92.0,89.8,86.0,79.0,77.6,77.0,78,68,64,30.07,30.02,6,4,13,0.00
2013-6-22,92.0,89.3,84.0,79.0,75.6,73.0,79,65,55,30.06,29.95,5,4,14,0.00
2013-6-23,91.0,82.7,73.0,80.0,76.1,72.0,100,82,63,30.01,29.94,6,2,15,0.01
2013-6-24,90.0,87.7,85.0,80.0,78.1,77.0,86,74,66,30.06,30.03,6,4,15,0.01
2013-6-27,94.0,89.2,80.0,79.0,77.0,75.0,86,68,59,29.97,29.92,6,3,14,0.00
2013-6-28,99.0,89.9,78.0,80.0,77.2,73.0,99,68,44,29.96,29.81,6,3,13,0.00
2013-6-29,102.0,92.5,82.0,83.0,78.1,74.0,87,66,41,29.80,29.70,7,3,17,0.00
2013-6-30,99.0,94.5,84.0,71.0,66.0,60.0,63,40,31,29.84,29.75,4,2,11,0.00
2013-7-1,90.0,86.5,78.0,69.0,65.2,62.0,64,50,41,29.91,29.86,6,3,12,0.00
2013-7-2,91.0,85.7,74.0,73.0,68.0,64.0,82,57,43,29.99,29.92,4,2,9,0.00
2013-7-3,92.0,88.0,80.0,72.0,68.8,64.0,69,54,41,30.00,29.90,7,3,15,0.00
2013-7-4,93.0,88.2,78.0,74.0,71.3,67.0,84,59,44,29.97,29.89,5,3,13,0.00
2013-7-5,93.0,87.5,82.0,78.0,75.1,72.0,83,68,53,29.95,29.85,5,3,14,0.00
2013-7-6,90.0,87.6,84.0,78.0,77.2,76.0,81,71,63,29.91,29.85,7,5,17,0.00
2013-7-7,88.0,80.5,74.0,80.0,76.0,73.0,99,87,69,30.00,29.89,6,2,16,0.00
2013-7-8,90.0,81.2,77.0,80.0,75.1,-99.9,96,85,67,30.13,30.00,5,1,10,0.00
2013-7-9,92.0,88.9,81.0,80.0,78.6,77.0,87,72,63,30.14,30.04,6,4,15,0.00
2013-7-10,92.0,86.8,79.0,80.0,77.6,76.0,92,75,63,30.09,29.96,5,2,14,0.13
2013-7-11,94.0,88.8,81.0,80.0,77.1,74.0,85,69,52,29.99,29.91,7,3,14,0.10
2013-7-12,93.0,88.5,79.0,80.0,77.0,74.0,89,70,57,29.96,29.88,5,2,14,0.00
2013-7-13,97.0,87.5,78.0,79.0,76.3,74.0,88,71,50,29.97,29.84,5,2,13,0.01
2013-7-14,90.0,85.9,80.0,79.0,76.4,66.0,87,74,49,29.95,29.86,5,2,12,0.01
2013-7-15,89.0,81.9,72.0,81.0,77.0,71.0,98,86,72,30.01,29.94,7,3,15,1.08
2013-7-16,86.0,81.1,74.0,81.0,76.8,73.0,99,87,77,30.08,30.01,7,3,14,1.07
2013-7-17,85.0,77.6,73.0,79.0,76.3,73.0,100,96,80,30.16,30.07,4,1,11,0.87
2013-7-18,91.0,86.9,82.0,80.0,76.0,69.0,90,71,51,30.13,29.98,6,3,13,0.01
2013-7-19,90.0,81.6,75.0,80.0,76.0,73.0,99,84,67,30.04,29.93,3,1,8,0.09
2013-7-20,87.0,81.4,76.0,81.0,75.3,-99.9,98,85,74,29.97,29.86,4,1,12,0.49
2013-7-21,86.0,80.3,74.0,79.0,76.7,73.0,99,89,75,30.01,29.92,7,2,15,0.78
2013-7-22,91.0,87.1,82.0,82.0,80.1,79.0,92,80,71,30.02,29.96,8,4,17,0.04
2013-7-23,92.0,88.2,80.0,80.0,78.8,76.0,89,74,64,30.02,29.93,6,4,15,0.00
2013-7-24,94.0,88.4,81.0,82.0,78.7,77.0,90,74,60,29.99,29.87,6,3,14,0.00
2013-7-25,94.0,90.0,84.0,81.0,78.2,74.0,84,69,53,30.01,29.98,4,3,11,0.00
2013-7-26,93.0,87.9,82.0,81.0,79.4,78.0,97,76,63,30.03,29.92,7,4,14,0.00
2013-7-27,95.0,85.4,78.0,80.0,78.3,77.0,99,82,59,29.92,29.84,6,2,13,0.44
2013-7-28,90.0,86.4,81.0,82.0,80.0,78.0,98,81,73,29.96,29.90,6,3,14,0.72
2013-7-29,90.0,87.2,80.0,79.0,78.2,77.0,91,75,67,30.05,30.02,6,4,16,0.01
2013-7-30,90.0,85.9,77.0,81.0,78.5,75.0,96,79,70,30.11,30.03,5,3,13,0.00
2013-7-31,93.0,87.7,79.0,82.0,78.8,75.0,90,75,67,30.09,29.96,5,2,11,0.00
2013-8-1,95.0,88.6,80.0,81.0,78.4,76.0,89,73,58,30.01,29.91,4,2,9,0.01
2013-8-2,93.0,87.3,79.0,81.0,78.8,77.0,93,77,61,29.98,29.91,5,2,10,0.00
2013-8-3,93.0,88.8,81.0,82.0,80.1,78.0,92,76,70,30.03,29.97,5,3,12,0.00
2013-8-4,92.0,88.3,81.0,82.0,79.4,78.0,91,76,68,30.07,29.98,6,3,14,0.00
2013-8-5,92.0,88.3,81.0,82.0,80.2,78.0,91,77,69,30.04,29.94,8,4,20,0.00
2013-8-6,94.0,88.6,82.0,82.0,79.9,77.0,92,76,59,29.98,29.88,9,5,19,0.00
2013-8-7,96.0,89.1,81.0,83.0,79.2,76.0,90,74,54,29.94,29.86,8,4,21,0.00
2013-8-8,93.0,88.3,78.0,81.0,78.4,76.0,95,73,64,29.93,29.85,6,3,15,0.00
2013-8-9,94.0,90.4,82.0,81.0,79.5,77.0,91,71,58,29.95,29.88,5,3,11,0.00
2013-8-10,91.0,84.9,78.0,81.0,79.1,77.0,100,84,67,30.03,29.96,5,2,12,0.10
2013-8-11,88.0,81.9,75.0,81.0,77.8,74.0,98,88,75,30.06,29.99,5,1,10,1.67
2013-8-12,91.0,86.9,79.0,82.0,79.6,77.0,95,80,70,30.07,29.97,5,2,14,0.07
2013-8-13,94.0,87.2,82.0,82.0,77.0,-99.9,93,76,60,30.03,29.91,6,3,15,0.01
2013-8-14,97.0,86.2,76.0,82.0,72.2,-99.9,94,74,52,29.99,29.87,6,3,15,0.01
2013-8-15,87.0,72.8,76.0,79.0,56.5,-99.9,99,82,67,30.01,29.91,4,1,13,0.61
2013-8-16,91.0,83.4,76.0,79.0,72.9,-99.9,97,75,59,29.97,29.87,3,2,10,0.02
2013-8-17,90.0,83.6,76.0,75.0,69.2,-99.9,89,65,55,29.99,29.89,5,2,13,0.03
2013-8-18,88.0,85.3,77.0,77.0,74.4,72.0,88,71,61,30.01,29.96,5,2,13,0.00
2013-8-19,90.0,79.2,74.0,78.0,56.8,-99.9,98,70,54,30.03,29.92,4,2,11,0.00
2013-8-20,87.0,78.9,74.0,79.0,72.5,-99.9,96,87,73,30.04,29.97,5,1,11,0.32
2013-8-21,91.0,86.7,80.0,81.0,79.0,77.0,97,78,63,30.05,29.98,7,2,16,0.01
2013-8-22,90.0,85.7,78.0,81.0,79.1,76.0,95,82,72,30.05,29.94,4,2,13,0.03
2013-8-23,93.0,86.8,78.0,82.0,78.3,76.0,100,77,62,29.99,29.88,4,2,11,0.00
2013-8-24,90.0,87.0,80.0,81.0,78.3,76.0,92,76,66,30.01,29.93,6,4,14,0.00
2013-8-25,83.0,79.5,77.0,79.0,77.6,76.0,99,94,87,30.06,30.01,6,2,14,1.28
2013-8-26,82.0,77.0,74.0,78.0,75.3,74.0,100,95,78,30.11,30.06,5,2,13,2.33
2013-8-27,89.0,85.1,78.0,81.0,79.3,78.0,100,84,72,30.10,30.05,5,3,11,0.10
2013-8-28,92.0,88.7,78.0,78.0,76.8,75.0,92,69,60,30.07,29.98,3,2,11,0.00
2013-8-29,95.0,87.9,80.0,81.0,78.9,77.0,96,76,59,30.06,29.94,4,2,10,0.00
2013-8-30,91.0,86.2,78.0,81.0,78.4,75.0,100,78,63,30.02,29.91,4,1,11,0.00
2013-9-1,92.0,87.2,78.0,81.0,77.8,76.0,96,74,63,29.92,29.84,4,2,11,0.00
2013-9-2,94.0,87.5,79.0,81.0,78.8,77.0,94,76,61,29.97,29.85,5,2,12,0.00
2013-9-3,94.0,88.5,80.0,82.0,79.2,75.0,99,75,57,29.98,29.87,5,1,11,0.00
2013-9-4,92.0,85.6,78.0,82.0,78.7,76.0,100,81,63,30.04,29.94,4,1,9,0.00
2013-9-5,87.0,83.9,77.0,82.0,79.8,76.0,98,89,81,30.07,30.06,4,2,8,0.08
2013-9-9,86.0,86.0,86.0,79.0,79.0,79.0,79,79,79,29.96,29.96,2,2,7,0.00
2013-9-10,85.0,80.2,78.0,77.0,75.4,75.0,90,86,78,30.02,29.99,3,1,8,0.21
2013-9-11,90.0,85.8,80.0,81.0,80.1,79.0,96,83,74,30.06,30.02,4,3,12,0.00
2013-9-12,90.0,85.5,74.0,80.0,75.2,72.0,95,73,60,30.02,29.90,5,3,13,0.00
2013-9-13,92.0,84.8,74.0,79.0,76.4,73.0,98,77,57,29.92,29.80,5,2,14,0.00
2013-9-14,90.0,84.0,79.0,80.0,74.6,-99.9,89,77,66,29.91,29.84,6,3,13,0.00
2013-9-15,89.0,86.0,82.0,79.0,78.1,77.0,88,78,67,29.96,29.92,7,4,12,0.00
2013-9-16,90.0,85.7,80.0,81.0,79.0,77.0,92,81,72,30.01,29.95,7,3,16,0.00
2013-9-17,90.0,84.9,78.0,80.0,78.2,76.0,97,81,67,30.03,29.93,7,3,16,0.00
2013-9-18,81.0,81.0,81.0,78.0,78.0,78.0,90,90,90,29.93,29.93,0,0,3,0.00
2013-9-19,89.0,84.8,80.0,81.0,79.8,78.0,95,86,77,29.93,29.84,7,4,19,0.25
2013-9-20,87.0,82.4,79.0,83.0,80.2,78.0,99,93,83,29.82,29.72,10,4,21,1.57
2013-9-21,76.0,73.3,72.0,74.0,69.1,-99.9,100,90,85,29.80,29.74,10,6,19,1.73
2013-9-22,82.0,75.5,70.0,72.0,68.4,65.0,86,79,69,29.81,29.72,9,4,19,0.01
2013-9-23,86.0,81.6,74.0,78.0,75.2,69.0,94,82,73,29.79,29.71,5,2,14,0.00
2013-9-24,91.0,85.5,73.0,81.0,77.1,71.0,95,77,59,29.83,29.75,5,2,12,0.00
2013-9-25,94.0,85.8,73.0,79.0,73.2,66.0,100,69,42,29.86,29.77,3,1,9,0.00
2013-9-26,90.0,83.9,74.0,80.0,73.0,70.0,100,71,52,29.90,29.85,5,2,10,0.00
2013-9-27,87.0,83.3,80.0,80.0,77.8,76.0,96,84,76,29.94,29.88,7,4,15,0.00
2013-9-28,85.0,81.0,79.0,80.0,76.0,-99.9,93,87,82,29.97,29.90,7,3,16,0.00
2013-9-29,84.0,80.5,78.0,81.0,77.7,76.0,97,91,79,29.96,29.88,8,2,21,0.34
2013-9-30,87.0,82.0,76.0,80.0,77.4,75.0,99,87,77,29.88,29.80,4,2,10,0.02
2013-10-1,81.0,77.2,76.0,75.0,74.6,74.0,96,92,82,29.91,29.87,3,0,9,0.28
2013-10-2,84.0,79.6,75.0,80.0,77.4,74.0,97,93,83,29.97,29.89,4,1,10,0.43
2013-10-3,88.0,83.9,76.0,81.0,77.5,74.0,95,81,74,29.94,29.86,4,2,16,0.01
2013-10-4,88.0,84.4,78.0,81.0,78.3,77.0,100,83,69,29.93,29.87,4,1,11,0.00
2013-10-5,90.0,84.7,77.0,82.0,79.2,76.0,98,85,74,29.91,29.83,3,0,7,0.02
2013-10-6,78.0,68.3,58.0,58.0,53.4,49.0,87,62,37,30.07,29.96,10,5,21,0.01
2013-10-7,79.0,74.9,60.0,56.0,53.8,52.0,74,49,40,30.11,30.01,8,4,13,0.01
2013-10-8,80.0,73.8,57.0,64.0,61.9,57.0,100,69,53,30.08,29.99,5,2,9,0.00
2013-10-9,82.0,77.5,64.0,70.0,66.3,63.0,98,70,56,30.06,29.98,4,2,8,0.01
2013-10-10,86.0,80.4,68.0,72.0,70.0,68.0,100,71,58,30.05,29.94,5,2,11,0.00
2013-10-11,87.0,82.6,73.0,78.0,76.1,73.0,100,81,68,29.96,29.88,5,3,13,0.00
2013-10-12,81.0,76.2,76.0,79.0,72.6,-99.9,100,94,87,30.03,29.92,4,1,11,0.21
2013-10-13,78.0,75.5,74.0,78.0,74.9,73.0,100,98,93,30.12,30.03,4,1,11,0.17
2013-10-14,85.0,79.9,73.0,78.0,74.2,72.0,100,83,73,30.08,29.97,5,2,14,0.02
2013-10-15,86.0,80.9,73.0,78.0,74.4,71.0,100,82,69,29.98,29.88,5,2,13,0.00
2013-10-16,82.0,75.4,68.0,77.0,72.2,66.0,100,90,80,29.97,29.89,4,2,12,0.04
2013-10-17,77.0,68.8,62.0,67.0,64.1,61.0,98,86,66,30.06,29.95,7,2,14,0.04
2013-10-18,75.0,72.0,68.0,68.0,66.2,62.0,95,82,70,29.98,29.85,7,3,15,0.01
2013-10-19,72.0,65.1,56.0,61.0,53.5,-99.9,94,70,53,30.09,30.03,9,5,18,0.08
2013-10-20,76.0,69.9,62.0,64.0,62.0,58.0,94,77,61,30.08,29.94,3,2,9,0.00
2013-10-21,74.0,69.0,63.0,71.0,67.6,62.0,99,96,89,29.98,29.89,5,1,11,0.37
2013-10-22,74.0,69.6,66.0,66.0,62.8,56.0,99,80,65,30.06,29.99,8,5,15,0.01
2013-10-23,81.0,73.5,50.0,62.0,55.6,50.0,100,57,38,30.15,30.07,3,1,12,0.01
2013-10-24,83.0,69.5,50.0,64.0,58.8,50.0,100,73,43,30.21,30.11,3,1,8,0.01
2013-10-25,74.0,67.7,61.0,63.0,61.3,59.0,100,81,67,30.33,30.24,6,3,16,0.01
2013-10-26,79.0,71.1,61.0,69.0,63.6,-99.9,99,81,68,30.23,30.09,6,2,13,0.00
2013-10-27,73.0,67.6,62.0,71.0,66.8,62.0,100,97,91,30.11,30.00,2,0,5,0.80
2013-10-28,83.0,76.4,71.0,76.0,70.3,-99.9,100,86,75,30.10,30.03,5,2,13,0.01
2013-10-29,84.0,78.3,70.0,74.0,72.7,70.0,99,84,70,30.11,30.04,7,3,17,0.00
2013-10-30,82.0,79.5,77.0,79.0,77.1,74.0,97,93,87,30.01,29.88,7,5,24,0.31
2013-10-31,78.0,69.5,65.0,77.0,69.2,65.0,100,99,97,29.88,29.78,10,2,21,4.12
2013-11-1,79.0,72.8,64.0,68.0,65.4,63.0,100,80,61,29.93,29.83,4,2,10,0.02
2013-11-2,73.0,69.0,63.0,47.0,44.9,43.0,49,42,37,30.15,30.11,9,6,17,0.04
2013-11-3,70.0,64.0,52.0,59.0,55.8,51.0,96,76,61,30.19,30.08,6,3,15,0.00
2013-11-4,77.0,72.5,68.0,69.0,68.0,67.0,97,86,75,30.07,29.99,9,6,20,0.12
2013-11-5,81.0,77.2,73.0,74.0,72.6,71.0,98,86,76,30.03,29.96,8,4,16,0.02
2013-11-6,85.0,75.0,60.0,77.0,68.9,56.0,99,81,65,30.21,30.02,9,4,18,0.01
2013-11-7,65.0,59.4,49.0,47.0,44.7,41.0,80,59,48,30.36,30.27,11,7,23,0.01
2013-11-8,66.0,59.8,51.0,49.0,47.1,43.0,91,65,50,30.35,30.20,6,3,17,0.00
2013-11-9,69.0,60.7,60.0,62.0,54.5,-99.9,95,87,79,30.18,30.14,2,0,7,0.00
2013-11-10,74.0,66.5,57.0,61.0,58.0,56.0,96,75,59,30.27,30.17,5,2,13,0.00
2013-11-11,75.0,68.0,56.0,62.0,59.6,55.0,99,76,61,30.24,30.13,3,1,9,0.00
2013-11-12,74.0,63.6,52.0,60.0,55.6,44.0,97,76,60,30.52,30.29,13,10,25,0.01
2013-11-13,55.0,52.0,44.0,35.0,31.7,28.0,68,47,37,30.58,30.42,11,7,18,0.00
2013-11-14,63.0,58.7,52.0,56.0,52.6,46.0,91,81,73,30.31,30.09,5,2,13,0.00
2013-11-15,76.0,71.1,63.0,70.0,67.6,61.0,98,89,80,30.02,29.91,6,3,13,0.00
2013-11-16,79.0,75.6,74.0,75.0,73.9,73.0,98,95,89,29.85,29.81,5,4,13,0.01
2013-11-17,84.0,78.6,72.0,78.0,75.8,72.0,99,91,81,29.92,29.82,7,3,15,0.00
2013-11-18,76.0,71.3,65.0,75.0,63.0,55.0,100,77,52,30.07,29.99,6,3,16,0.01
2013-11-19,67.0,62.8,57.0,56.0,53.8,51.0,84,72,66,30.12,30.02,7,4,18,0.00
2013-11-20,74.0,69.9,61.0,68.0,65.3,57.0,97,86,75,30.03,29.92,7,5,18,0.00
2013-11-21,80.0,76.6,73.0,76.0,73.8,72.0,98,92,85,30.05,29.98,8,6,20,0.00
2013-11-22,75.0,55.2,47.0,75.0,55.0,46.0,100,99,96,30.24,30.11,10,6,20,0.85
2013-11-23,50.0,48.3,48.0,49.0,44.7,-99.9,96,92,88,30.33,30.25,12,10,23,0.00
2013-11-24,51.0,48.3,44.0,38.0,37.3,35.0,72,65,58,30.39,30.29,9,6,20,0.00
2013-11-25,44.0,42.5,40.0,43.0,41.6,39.0,99,98,96,30.16,29.98,9,6,17,0.75
2013-11-26,45.0,42.4,40.0,42.0,40.4,39.0,98,93,88,30.24,30.06,7,4,20,0.89
2013-11-27,50.0,43.5,33.0,36.0,32.7,30.0,90,67,48,30.41,30.32,10,4,20,0.00
2013-11-28,55.0,50.3,44.0,47.0,44.7,41.0,95,81,72,30.45,30.37,5,2,10,0.00
2013-11-29,59.0,52.3,43.0,46.0,41.5,37.0,91,69,43,30.49,30.39,4,2,11,0.01
2013-11-30,69.0,61.2,55.0,59.0,53.0,-99.9,98,79,60,30.37,30.24,5,2,10,0.00
2013-12-1,71.0,65.8,60.0,63.0,61.6,60.0,100,87,76,30.20,30.00,5,1,11,0.01
2013-12-2,77.0,69.8,62.0,68.0,64.9,61.0,98,85,71,29.88,29.71,7,4,19,0.00
2013-12-3,80.0,73.3,66.0,71.0,68.5,66.0,99,86,71,29.74,29.64,8,5,21,0.01
2013-12-4,80.0,75.3,72.0,74.0,72.6,71.0,99,92,82,29.81,29.73,8,4,17,0.01
2013-12-5,77.0,60.0,44.0,75.0,58.2,43.0,100,94,84,29.97,29.85,10,5,18,0.00
2013-12-6,43.0,41.0,38.0,41.0,39.0,36.0,98,93,88,30.30,30.07,11,9,21,0.01
2013-12-7,39.0,38.7,38.0,37.0,36.2,35.0,92,90,89,30.37,30.27,5,4,11,0.00
2013-12-8,49.0,46.9,44.0,45.0,42.7,40.0,89,85,80,30.16,30.03,5,2,12,0.00
2013-12-9,50.0,47.5,43.0,50.0,46.6,42.0,99,98,97,30.19,30.02,8,6,17,0.04
2013-12-10,50.0,45.4,39.0,36.0,34.3,34.0,81,66,53,30.42,30.31,10,6,18,0.01
2013-12-11,55.0,50.0,44.0,47.0,43.6,40.0,87,79,73,30.45,30.32,5,2,10,0.00
2013-12-12,54.0,48.0,41.0,42.0,39.8,38.0,89,74,58,30.53,30.37,7,2,14,0.00
2013-12-13,63.0,59.1,57.0,61.0,57.9,56.0,99,96,89,30.03,29.86,6,2,9,0.00
2013-12-14,62.0,52.9,45.0,59.0,45.8,-99.9,100,80,70,30.22,29.92,12,7,24,0.03
2013-12-15,57.0,51.1,40.0,38.0,36.2,34.0,80,58,46,30.37,30.26,7,4,14,0.00
2013-12-16,64.0,55.9,41.0,46.0,41.9,37.0,99,62,38,30.34,30.23,4,2,10,0.00
2013-12-17,71.0,60.7,43.0,55.0,51.3,43.0,100,74,44,30.33,30.23,5,1,9,0.00
2013-12-18,69.0,62.3,52.0,61.0,56.7,52.0,100,83,67,30.31,30.16,7,3,13,0.01
2013-12-19,75.0,70.1,64.0,69.0,66.6,62.0,97,89,77,30.04,29.90,9,5,19,0.00
2013-12-20,75.0,72.2,70.0,73.0,71.1,70.0,99,97,93,29.92,29.79,7,5,17,0.00
2013-12-21,75.0,64.2,52.0,74.0,61.9,-99.9,99,95,89,29.79,29.58,9,3,18,0.40
2013-12-22,66.0,57.0,45.0,63.0,51.0,38.0,100,80,70,30.24,29.96,9,4,17,0.02
2013-12-23,54.0,45.8,38.0,39.0,36.0,33.0,88,69,52,30.50,30.40,8,4,14,0.00
2013-12-24,54.0,47.2,38.0,40.0,36.7,31.0,93,69,47,30.55,30.32,6,3,12,0.00
2013-12-25,60.0,54.4,39.0,53.0,49.3,37.0,95,83,74,30.34,30.27,6,3,13,0.00
2013-12-26,61.0,55.4,50.0,47.0,40.7,33.0,83,59,40,30.38,30.29,6,2,13,0.00
2013-12-27,55.0,52.8,50.0,47.0,43.5,41.0,90,71,63,30.41,30.30,5,2,11,0.00
2013-12-28,57.0,51.4,39.0,43.0,38.5,-99.9,94,65,52,30.23,30.04,2,1,7,0.00
2013-12-29,68.0,60.3,45.0,50.0,47.0,41.0,100,64,43,30.09,30.00,5,1,10,0.00
2013-12-30,47.0,45.0,43.0,39.0,38.6,37.0,81,78,75,30.34,30.22,7,4,16,0.00
2013-12-31,48.0,46.5,43.0,44.0,41.0,37.0,91,81,74,30.42,30.29,4,1,9,0.00
2014-1-1,64.0,61.1,58.0,60.0,58.6,57.0,96,92,85,30.13,30.02,4,2,10,0.02
2014-1-2,54.0,47.1,42.0,36.0,31.9,29.0,75,56,40,30.42,30.19,14,8,28,0.02